createdAt,value
2022-11-13T00:01:17.136Z,53.40
2022-11-13T00:03:44.442Z,60.13
2022-11-13T00:06:12.508Z,77.63
2022-11-13T00:08:39.853Z,47.17
2022-11-13T00:11:18.732Z,69.03
2022-11-13T00:13:47.122Z,55.23
2022-11-13T00:16:20.561Z,44.60
2022-11-13T00:18:48.398Z,77.03
2022-11-13T00:21:22.827Z,46.47
2022-11-13T00:23:50.489Z,56.30
2022-11-13T00:26:24.100Z,51.60
2022-11-13T00:28:57.041Z,55.83
2022-11-13T00:31:24.153Z,98.23
2022-11-13T00:36:38.421Z,73.63
2022-11-13T00:39:05.312Z,92.80
2022-11-13T00:41:32.245Z,45.00
2022-11-13T00:43:59.111Z,63.33
2022-11-13T00:46:25.990Z,58.83
2022-11-13T00:48:52.973Z,54.63
2022-11-13T00:51:19.965Z,70.50
2022-11-13T00:53:48.020Z,50.93
2022-11-13T00:56:14.951Z,53.03
2022-11-13T00:58:41.927Z,63.30
2022-11-13T01:01:16.064Z,50.30
2022-11-13T01:03:43.244Z,52.70
2022-11-13T01:06:27.462Z,85.13
2022-11-13T01:08:56.556Z,52.43
2022-11-13T01:11:27.841Z,48.37
2022-11-13T01:13:56.544Z,85.57
2022-11-13T01:16:28.195Z,51.70
2022-11-13T01:18:56.546Z,55.17
2022-11-13T01:21:26.548Z,48.73
2022-11-13T01:23:54.674Z,45.47
2022-11-13T01:26:28.590Z,43.53
2022-11-13T01:28:56.858Z,66.53
2022-11-13T01:31:28.647Z,76.60
2022-11-13T01:33:57.288Z,40.97
2022-11-13T01:36:28.394Z,50.13
2022-11-13T01:38:56.611Z,62.30
2022-11-13T01:41:33.917Z,44.67
2022-11-13T01:44:01.935Z,43.10
2022-11-13T01:46:33.673Z,45.77
2022-11-13T01:49:15.904Z,47.43
2022-11-13T01:52:02.277Z,48.80
2022-11-13T01:54:36.235Z,52.13
2022-11-13T01:57:04.821Z,58.53
2022-11-13T01:59:39.561Z,41.67
2022-11-13T02:02:07.422Z,53.13
2022-11-13T02:04:34.688Z,53.73
2022-11-13T02:07:06.626Z,52.97
2022-11-13T02:09:43.313Z,54.23
2022-11-13T02:12:20.690Z,37.90
2022-11-13T02:14:52.779Z,42.67
2022-11-13T02:17:31.994Z,40.23
2022-11-13T02:20:02.375Z,38.93
2022-11-13T02:23:08.580Z,39.93
2022-11-13T02:25:36.927Z,33.73
2022-11-13T02:28:03.889Z,34.83
2022-11-13T02:30:34.624Z,55.40
2022-11-13T02:33:01.816Z,41.13
2022-11-13T02:35:35.927Z,38.67
2022-11-13T02:38:05.942Z,45.23
2022-11-13T02:40:33.943Z,60.40
2022-11-13T02:43:00.891Z,46.67
2022-11-13T02:45:27.917Z,39.97
2022-11-13T02:47:55.005Z,47.83
2022-11-13T02:50:22.030Z,47.93
2022-11-13T02:52:49.010Z,62.43
2022-11-13T02:55:16.028Z,45.00
2022-11-13T02:57:42.910Z,47.10
2022-11-13T03:00:14.068Z,74.67
2022-11-13T03:02:41.798Z,57.07
2022-11-13T03:05:12.503Z,57.73
2022-11-13T03:07:41.313Z,61.47
2022-11-13T03:10:09.658Z,52.23
2022-11-13T03:12:37.165Z,45.70
2022-11-13T03:15:05.765Z,63.83
2022-11-13T03:17:33.017Z,63.47
2022-11-13T03:20:00.295Z,64.40
2022-11-13T03:22:27.937Z,54.13
2022-11-13T03:24:54.876Z,53.67
2022-11-13T03:27:22.393Z,49.97
2022-11-13T03:29:49.322Z,54.93
2022-11-13T03:32:16.433Z,54.10
2022-11-13T03:34:43.465Z,53.70
2022-11-13T03:37:10.329Z,49.83
2022-11-13T03:39:37.180Z,50.80
2022-11-13T03:42:04.285Z,54.13
2022-11-13T03:44:31.200Z,56.63
2022-11-13T03:46:58.065Z,49.13
2022-11-13T03:49:25.117Z,74.23
2022-11-13T03:51:52.060Z,66.57
2022-11-13T03:54:19.098Z,67.37
2022-11-13T03:56:45.966Z,60.57
2022-11-13T03:59:12.916Z,64.83
2022-11-13T04:01:39.890Z,51.87
2022-11-13T04:04:06.911Z,71.27
2022-11-13T04:06:33.839Z,56.10
2022-11-13T04:09:00.832Z,73.80
2022-11-13T04:11:27.974Z,74.57
2022-11-13T04:13:55.035Z,56.27
2022-11-13T04:16:22.047Z,56.33
2022-11-13T04:18:48.938Z,68.60
2022-11-13T04:21:15.809Z,73.40
2022-11-13T04:23:42.785Z,53.07
2022-11-13T04:26:09.632Z,50.90
2022-11-13T04:28:37.599Z,60.63
2022-11-13T04:31:06.479Z,58.90
2022-11-13T04:33:33.364Z,54.30
2022-11-13T04:36:01.096Z,55.63
2022-11-13T04:38:28.303Z,59.60
2022-11-13T04:41:15.637Z,49.07
2022-11-13T04:43:42.495Z,44.80
2022-11-13T04:46:09.385Z,47.53
2022-11-13T04:48:36.353Z,59.03
2022-11-13T04:51:03.387Z,47.63
2022-11-13T04:53:30.294Z,43.73
2022-11-13T04:55:57.187Z,45.40
2022-11-13T04:58:24.094Z,43.40
2022-11-13T05:00:51.009Z,52.80
2022-11-13T05:03:17.938Z,42.60
2022-11-13T05:05:44.893Z,51.93
2022-11-13T05:08:12.775Z,41.83
2022-11-13T05:10:39.835Z,41.33
2022-11-13T05:13:06.726Z,64.70
2022-11-13T05:15:33.668Z,39.77
2022-11-13T05:18:00.560Z,46.30
2022-11-13T05:20:27.401Z,37.40
2022-11-13T05:22:54.289Z,32.57
2022-11-13T05:25:21.206Z,40.97
2022-11-13T05:27:48.210Z,49.47
2022-11-13T05:30:15.822Z,51.97
2022-11-13T05:32:42.895Z,90.20
2022-11-13T05:35:09.856Z,42.90
2022-11-13T05:37:37.790Z,76.53
2022-11-13T05:40:05.576Z,51.20
2022-11-13T05:42:32.555Z,110.73
2022-11-13T05:44:59.413Z,51.00
2022-11-13T05:47:26.325Z,38.43
2022-11-13T05:49:53.215Z,40.80
2022-11-13T05:52:20.226Z,37.13
2022-11-13T05:54:47.133Z,78.27
2022-11-13T05:57:14.000Z,59.17
2022-11-13T05:59:40.875Z,92.97
2022-11-13T06:02:07.994Z,46.33
2022-11-13T06:04:34.963Z,26.73
2022-11-13T06:07:01.915Z,32.73
2022-11-13T06:09:28.787Z,35.23
2022-11-13T06:11:55.777Z,22.57
2022-11-13T06:14:22.625Z,21.70
2022-11-13T06:16:50.105Z,32.50
2022-11-13T06:19:16.949Z,38.97
2022-11-13T06:21:43.866Z,36.07
2022-11-13T06:24:12.790Z,28.23
2022-11-13T06:26:40.110Z,34.43
2022-11-13T06:29:10.731Z,35.50
2022-11-13T06:31:38.096Z,44.33
2022-11-13T06:34:06.275Z,28.87
2022-11-13T06:36:36.370Z,46.33
2022-11-13T06:39:08.071Z,44.93
2022-11-13T06:41:35.184Z,42.53
2022-11-13T06:44:03.319Z,32.80
2022-11-13T06:46:31.674Z,31.00
2022-11-13T06:48:58.802Z,42.13
2022-11-13T06:51:29.308Z,40.63
2022-11-13T06:53:57.022Z,39.20
2022-11-13T06:56:24.358Z,33.03
2022-11-13T06:58:51.274Z,29.33
2022-11-13T07:01:21.519Z,30.93
2022-11-13T07:03:48.929Z,43.43
2022-11-13T07:06:22.805Z,27.63
2022-11-13T07:08:50.170Z,32.03
2022-11-13T07:11:23.278Z,36.83
2022-11-13T07:13:50.644Z,41.17
2022-11-13T07:16:19.290Z,30.60
2022-11-13T07:18:53.782Z,45.80
2022-11-13T07:21:22.455Z,47.13
2022-11-13T07:23:50.235Z,45.20
2022-11-13T07:26:17.744Z,31.60
2022-11-13T07:28:44.957Z,27.57
2022-11-13T07:31:14.502Z,48.40
2022-11-13T07:33:41.736Z,40.13
2022-11-13T07:36:09.770Z,32.47
2022-11-13T07:38:37.072Z,37.30
2022-11-13T07:41:04.146Z,35.20
2022-11-13T07:43:31.408Z,30.33
2022-11-13T07:45:59.588Z,31.33
2022-11-13T07:48:30.505Z,63.73
2022-11-13T07:51:01.514Z,46.13
2022-11-13T07:53:28.545Z,44.57
2022-11-13T07:55:55.513Z,45.63
2022-11-13T07:58:22.400Z,44.17
2022-11-13T08:00:49.277Z,46.77
2022-11-13T08:03:17.405Z,42.93
2022-11-13T08:05:44.614Z,42.40
2022-11-13T08:08:15.526Z,43.60
2022-11-13T08:10:43.007Z,46.23
2022-11-13T08:13:11.527Z,35.40
2022-11-13T08:15:38.862Z,37.57
2022-11-13T08:18:06.470Z,40.37
2022-11-13T08:20:34.085Z,37.73
2022-11-13T08:23:03.471Z,36.80
2022-11-13T08:25:33.427Z,39.00
2022-11-13T08:28:00.671Z,34.90
2022-11-13T08:30:29.218Z,48.33
2022-11-13T08:32:56.231Z,37.83
2022-11-13T08:35:29.174Z,33.80
2022-11-13T08:38:03.390Z,38.20
2022-11-13T08:40:30.762Z,38.33
2022-11-13T08:43:03.490Z,36.73
2022-11-13T08:45:31.102Z,37.93
2022-11-13T08:48:03.006Z,43.13
2022-11-13T08:50:32.271Z,39.30
2022-11-13T08:53:01.121Z,32.60
2022-11-13T08:55:28.662Z,29.03
2022-11-13T08:58:02.573Z,26.93
2022-11-13T09:00:31.959Z,36.30
2022-11-13T09:03:00.536Z,28.60
2022-11-13T09:05:28.255Z,35.53
2022-11-13T09:08:00.785Z,33.00
2022-11-13T09:10:28.425Z,33.27
2022-11-13T09:13:04.493Z,34.80
2022-11-13T09:15:32.659Z,33.40
2022-11-13T09:18:02.055Z,27.30
2022-11-13T09:20:31.074Z,30.73
2022-11-13T09:23:03.978Z,27.77
2022-11-13T09:25:37.329Z,30.03
2022-11-13T09:28:06.639Z,29.10
2022-11-13T09:30:34.362Z,29.20
2022-11-13T09:33:01.981Z,32.03
2022-11-13T09:35:36.176Z,32.17
2022-11-13T09:38:13.032Z,31.27
2022-11-13T09:41:18.018Z,28.20
2022-11-13T09:43:59.777Z,29.43
2022-11-13T09:46:39.557Z,32.13
2022-11-13T09:49:16.573Z,27.70
2022-11-13T09:51:55.738Z,25.93
2022-11-13T09:54:23.350Z,24.73
2022-11-13T09:57:28.285Z,23.90
2022-11-13T10:00:02.285Z,26.40
2022-11-13T10:02:49.380Z,24.63
2022-11-13T10:05:40.556Z,26.73
2022-11-13T10:08:13.880Z,22.27
2022-11-13T10:10:55.874Z,25.30
2022-11-13T10:13:32.821Z,26.97
2022-11-13T10:16:21.138Z,21.83
2022-11-13T10:18:50.721Z,20.70
2022-11-13T10:21:35.259Z,24.37
2022-11-13T10:24:14.462Z,25.50
2022-11-13T10:26:41.527Z,24.93
2022-11-13T10:29:15.344Z,22.23
2022-11-13T10:31:51.727Z,21.43
2022-11-13T10:34:19.783Z,21.20
2022-11-13T10:37:20.198Z,21.10
2022-11-13T10:39:47.501Z,24.73
2022-11-13T10:42:31.825Z,22.80
2022-11-13T10:45:00.996Z,23.17
2022-11-13T10:48:01.841Z,24.00
2022-11-13T10:50:31.071Z,21.00
2022-11-13T10:52:59.000Z,26.07
2022-11-13T10:55:35.979Z,21.23
2022-11-13T10:58:13.621Z,18.60
2022-11-13T11:00:41.513Z,20.07
2022-11-13T11:03:20.819Z,21.13
2022-11-13T11:05:57.308Z,21.37
2022-11-13T11:08:31.387Z,20.67
2022-11-13T11:11:35.653Z,20.00
2022-11-13T11:14:31.618Z,19.30
2022-11-13T11:17:00.681Z,18.00
2022-11-13T11:19:31.091Z,16.80
2022-11-13T11:22:16.573Z,17.00
2022-11-13T11:25:02.217Z,15.90
2022-11-13T11:27:37.450Z,18.43
2022-11-13T11:30:22.054Z,21.33
2022-11-13T11:33:07.062Z,17.60
2022-11-13T11:35:44.462Z,19.00
2022-11-13T11:38:24.315Z,17.93
2022-11-13T11:40:59.599Z,16.23
2022-11-13T11:44:02.009Z,17.80
2022-11-13T11:46:30.097Z,17.30
2022-11-13T11:49:01.048Z,18.00
2022-11-13T11:51:37.107Z,17.50
2022-11-13T11:54:28.401Z,15.50
2022-11-13T11:57:10.517Z,17.93
2022-11-13T12:00:05.968Z,17.90
2022-11-13T12:03:10.646Z,17.50
2022-11-13T12:06:04.512Z,14.37
2022-11-13T12:09:16.144Z,16.13
2022-11-13T12:11:53.464Z,14.47
2022-11-13T12:14:47.733Z,15.70
2022-11-13T12:18:03.142Z,12.60
2022-11-13T12:20:44.879Z,12.73
2022-11-13T12:23:48.041Z,17.50
2022-11-13T12:26:28.789Z,13.77
2022-11-13T12:30:00.072Z,11.00
2022-11-13T12:33:05.281Z,13.07
2022-11-13T12:35:32.316Z,12.13
2022-11-13T12:38:08.173Z,13.87
2022-11-13T12:41:13.103Z,12.73
2022-11-13T12:44:01.629Z,9.10
2022-11-13T12:46:49.626Z,12.10
2022-11-13T12:49:37.319Z,11.20
2022-11-13T12:52:16.552Z,10.27
2022-11-13T12:54:44.086Z,12.03
2022-11-13T12:57:14.012Z,9.93
2022-11-13T12:59:45.994Z,10.83
2022-11-13T13:02:27.975Z,10.23
2022-11-13T13:05:14.484Z,10.37
2022-11-13T13:08:11.648Z,11.17
2022-11-13T13:11:10.051Z,11.70
2022-11-13T13:13:48.799Z,12.80
2022-11-13T13:16:27.209Z,9.67
2022-11-13T13:19:23.279Z,13.57
2022-11-13T13:21:50.181Z,15.00
2022-11-13T13:24:38.071Z,11.27
2022-11-13T13:27:27.704Z,12.00
2022-11-13T13:29:54.816Z,12.10
2022-11-13T13:32:52.831Z,13.73
2022-11-13T13:35:47.326Z,14.30
2022-11-13T13:38:26.334Z,12.50
2022-11-13T13:41:45.327Z,11.10
2022-11-13T13:44:28.681Z,10.80
2022-11-13T13:46:57.477Z,12.53
2022-11-13T13:49:27.008Z,11.77
2022-11-13T13:51:56.383Z,12.43
2022-11-13T13:54:28.054Z,10.70
2022-11-13T13:56:57.274Z,10.63
2022-11-13T13:59:32.196Z,10.00
2022-11-13T14:02:02.165Z,11.73
2022-11-13T14:04:34.785Z,14.70
2022-11-13T14:07:02.914Z,9.97
2022-11-13T14:09:31.233Z,10.37
2022-11-13T14:12:09.800Z,9.47
2022-11-13T14:14:40.001Z,9.80
2022-11-13T14:17:09.843Z,9.47
2022-11-13T14:19:37.148Z,11.30
2022-11-13T14:22:06.536Z,9.50
2022-11-13T14:24:57.259Z,12.20
2022-11-13T14:27:27.376Z,10.50
2022-11-13T14:30:00.781Z,12.13
2022-11-13T14:32:33.258Z,12.03
2022-11-13T14:35:02.946Z,11.70
2022-11-13T14:37:38.088Z,11.97
2022-11-13T14:40:31.051Z,12.87
2022-11-13T14:43:02.098Z,14.23
2022-11-13T14:45:32.358Z,14.90
2022-11-13T14:48:04.215Z,16.70
2022-11-13T14:50:36.560Z,16.93
2022-11-13T14:53:06.973Z,15.53
2022-11-13T14:55:39.105Z,14.50
2022-11-13T14:58:05.998Z,17.27
2022-11-13T15:00:36.471Z,15.53
2022-11-13T15:03:05.967Z,16.80
2022-11-13T15:05:33.022Z,17.93
2022-11-13T15:08:00.325Z,19.73
2022-11-13T15:10:29.850Z,21.20
2022-11-13T15:12:56.781Z,17.33
2022-11-13T15:15:28.495Z,18.70
2022-11-13T15:17:55.616Z,19.80
2022-11-13T15:20:30.371Z,24.07
2022-11-13T15:22:59.724Z,20.50
2022-11-13T15:25:27.238Z,17.50
2022-11-13T15:27:54.163Z,17.47
2022-11-13T15:30:21.054Z,20.00
2022-11-13T15:32:53.176Z,19.10
2022-11-13T15:35:20.634Z,18.00
2022-11-13T15:37:47.586Z,18.50
2022-11-13T15:40:15.262Z,21.00
2022-11-13T15:42:43.719Z,24.60
2022-11-13T15:45:16.307Z,20.10
2022-11-13T15:47:43.501Z,22.00
2022-11-13T15:50:15.168Z,22.20
2022-11-13T15:52:47.008Z,19.60
2022-11-13T15:55:28.674Z,27.57
2022-11-13T15:57:57.778Z,22.63
2022-11-13T16:00:27.679Z,25.03
2022-11-13T16:02:56.786Z,19.20
2022-11-13T16:05:26.356Z,21.47
2022-11-13T16:07:54.251Z,21.13
2022-11-13T16:10:25.154Z,21.87
2022-11-13T16:12:53.245Z,21.07
2022-11-13T16:15:20.465Z,18.43
2022-11-13T16:17:53.941Z,20.27
2022-11-13T16:20:20.991Z,17.40
2022-11-13T16:22:48.286Z,19.37
2022-11-13T16:25:19.721Z,16.07
2022-11-13T16:27:47.637Z,14.53
2022-11-13T16:30:21.749Z,19.93
2022-11-13T16:32:48.990Z,18.10
2022-11-13T16:35:18.541Z,18.00
2022-11-13T16:37:45.850Z,18.73
2022-11-13T16:40:22.354Z,18.07
2022-11-13T16:42:52.715Z,16.47
2022-11-13T16:45:21.530Z,19.17
2022-11-13T16:47:50.628Z,19.23
2022-11-13T16:50:26.813Z,17.27
2022-11-13T16:52:53.745Z,19.43
2022-11-13T16:55:20.664Z,22.63
2022-11-13T16:57:47.618Z,18.60
2022-11-13T17:00:17.770Z,22.60
2022-11-13T17:02:44.991Z,19.93
2022-11-13T17:05:17.117Z,18.87
2022-11-13T17:07:44.019Z,14.37
2022-11-13T17:10:30.796Z,17.27
2022-11-13T17:12:59.727Z,19.93
2022-11-13T17:15:26.803Z,20.10
2022-11-13T17:17:58.247Z,20.00
2022-11-13T17:20:25.695Z,19.90
2022-11-13T17:22:52.643Z,18.20
2022-11-13T17:25:20.579Z,25.87
2022-11-13T17:27:47.571Z,22.63
2022-11-13T17:30:14.999Z,23.23
2022-11-13T17:32:41.936Z,21.27
2022-11-13T17:35:11.948Z,19.60
2022-11-13T17:37:39.488Z,22.37
2022-11-13T17:40:07.625Z,18.40
2022-11-13T17:42:34.610Z,32.37
2022-11-13T17:45:01.514Z,44.57
2022-11-13T17:47:29.423Z,42.40
2022-11-13T17:50:01.173Z,36.47
2022-11-13T17:52:30.934Z,40.77
2022-11-13T17:54:57.920Z,34.70
2022-11-13T17:57:27.106Z,90.27
2022-11-13T17:59:54.248Z,34.10
2022-11-13T18:02:21.215Z,33.03
2022-11-13T18:04:48.137Z,33.40
2022-11-13T18:07:15.100Z,36.13
2022-11-13T18:09:42.019Z,29.17
2022-11-13T18:12:08.949Z,36.40
2022-11-13T18:14:35.818Z,32.70
2022-11-13T18:17:02.704Z,35.67
2022-11-13T18:19:29.918Z,29.60
2022-11-13T18:21:56.787Z,29.43
2022-11-13T18:24:23.775Z,29.47
2022-11-13T18:26:50.738Z,25.80
2022-11-13T18:29:17.780Z,21.43
2022-11-13T18:31:45.087Z,25.40
2022-11-13T18:34:16.674Z,19.30
2022-11-13T18:36:44.084Z,22.70
2022-11-13T18:39:16.444Z,21.17
2022-11-13T18:41:43.834Z,19.03
2022-11-13T18:44:11.001Z,20.33
2022-11-13T18:46:38.048Z,29.20
2022-11-13T18:49:05.215Z,23.63
2022-11-13T18:51:35.510Z,98.87
2022-11-13T18:54:09.405Z,87.63
2022-11-13T18:56:37.011Z,24.93
2022-11-13T18:59:04.037Z,51.37
2022-11-13T19:01:33.728Z,39.20
2022-11-13T19:04:22.303Z,26.40
2022-11-13T19:06:50.818Z,53.00
2022-11-13T19:09:18.400Z,55.17
2022-11-13T19:11:45.739Z,63.93
2022-11-13T19:14:17.925Z,28.30
2022-11-13T19:16:45.164Z,47.83
2022-11-13T19:19:21.409Z,54.77
2022-11-13T19:21:48.953Z,41.67
2022-11-13T19:24:16.395Z,29.60
2022-11-13T19:26:44.881Z,45.83
2022-11-13T19:29:12.434Z,48.10
2022-11-13T19:31:39.693Z,57.77
2022-11-13T19:34:08.425Z,86.97
2022-11-13T19:36:37.045Z,43.70
2022-11-13T19:39:04.922Z,38.47
2022-11-13T19:41:32.066Z,36.90
2022-11-13T19:44:00.351Z,43.13
2022-11-13T19:46:28.378Z,54.00
2022-11-13T19:48:55.266Z,39.50
2022-11-13T19:51:24.661Z,33.10
2022-11-13T19:53:58.076Z,90.17
2022-11-13T19:56:28.250Z,40.90
2022-11-13T19:58:56.038Z,44.43
2022-11-13T20:01:26.529Z,48.00
2022-11-13T20:03:59.557Z,31.13
2022-11-13T20:06:28.250Z,36.27
2022-11-13T20:08:55.476Z,74.70
2022-11-13T20:11:22.379Z,40.70
2022-11-13T20:13:49.396Z,48.80
2022-11-13T20:16:17.572Z,45.50
2022-11-13T20:18:44.759Z,42.77
2022-11-13T20:21:11.715Z,38.60
2022-11-13T20:23:39.333Z,36.00
2022-11-13T20:26:10.454Z,38.10
2022-11-13T20:28:37.350Z,79.17
2022-11-13T20:31:16.346Z,44.07
2022-11-13T20:33:43.748Z,35.60
2022-11-13T20:36:11.198Z,37.20
2022-11-13T20:38:38.323Z,33.57
2022-11-13T20:41:07.825Z,36.23
2022-11-13T20:43:34.695Z,37.40
2022-11-13T20:46:04.043Z,40.60
2022-11-13T20:48:31.214Z,35.90
2022-11-13T20:51:22.141Z,53.00
2022-11-13T20:53:49.770Z,41.37
2022-11-13T20:56:19.359Z,48.50
2022-11-13T20:58:46.894Z,47.87
2022-11-13T21:01:20.649Z,43.87
2022-11-13T21:03:48.433Z,46.87
2022-11-13T21:06:19.525Z,41.77
2022-11-13T21:08:47.207Z,43.40
2022-11-13T21:11:21.982Z,47.10
2022-11-13T21:13:49.825Z,40.63
2022-11-13T21:16:18.132Z,45.03
2022-11-13T21:18:46.189Z,41.67
2022-11-13T21:21:19.313Z,43.27
2022-11-13T21:23:47.501Z,44.13
2022-11-13T21:26:15.266Z,40.70
2022-11-13T21:28:42.230Z,46.63
2022-11-13T21:31:18.753Z,43.60
2022-11-13T21:33:47.254Z,38.20
2022-11-13T21:36:18.879Z,41.77
2022-11-13T21:38:46.012Z,36.80
2022-11-13T21:41:24.562Z,37.43
2022-11-13T21:44:03.336Z,40.13
2022-11-13T21:46:37.963Z,37.07
2022-11-13T21:49:10.586Z,42.23
2022-11-13T21:51:40.037Z,37.20
2022-11-13T21:54:07.874Z,38.87
2022-11-13T21:56:37.935Z,36.60
2022-11-13T21:59:05.609Z,38.50
2022-11-13T22:01:38.150Z,42.67
2022-11-13T22:04:07.267Z,41.33
2022-11-13T22:06:39.702Z,43.40
2022-11-13T22:09:17.247Z,36.70
2022-11-13T22:11:44.986Z,34.60
2022-11-13T22:14:12.264Z,38.53
2022-11-13T22:16:42.593Z,32.83
2022-11-13T22:19:22.669Z,37.63
2022-11-13T22:21:54.118Z,34.50
2022-11-13T22:24:21.238Z,37.33
2022-11-13T22:26:48.470Z,41.30
2022-11-13T22:29:15.706Z,36.37
2022-11-13T22:31:44.853Z,37.57
2022-11-13T22:34:11.868Z,34.63
2022-11-13T22:36:38.806Z,29.73
2022-11-13T22:39:06.414Z,29.67
2022-11-13T22:41:35.153Z,35.40
2022-11-13T22:44:06.242Z,32.60
2022-11-13T22:46:35.709Z,32.33
2022-11-13T22:49:04.966Z,31.60
2022-11-13T22:51:38.668Z,29.47
2022-11-13T22:54:12.798Z,33.47
2022-11-13T22:56:41.435Z,31.70
2022-11-13T22:59:11.394Z,31.00
2022-11-13T23:01:40.972Z,29.70
2022-11-13T23:04:11.861Z,30.70
2022-11-13T23:06:38.878Z,33.50
2022-11-13T23:09:06.514Z,31.43
2022-11-13T23:11:42.341Z,30.67
2022-11-13T23:14:13.050Z,27.20
2022-11-13T23:16:40.041Z,31.83
2022-11-13T23:19:07.003Z,28.20
2022-11-13T23:21:34.315Z,35.60
2022-11-13T23:24:01.601Z,26.90
2022-11-13T23:26:29.237Z,28.87
2022-11-13T23:28:57.085Z,23.90
2022-11-13T23:31:24.545Z,27.03
2022-11-13T23:33:51.546Z,28.93
2022-11-13T23:36:18.620Z,23.17
2022-11-13T23:38:45.917Z,28.80
2022-11-13T23:41:13.152Z,28.80
2022-11-13T23:46:27.123Z,31.80
2022-11-13T23:48:54.117Z,27.30
2022-11-13T23:51:21.026Z,29.17
2022-11-13T23:53:48.039Z,27.80
2022-11-13T23:56:15.098Z,29.63
2022-11-13T23:58:42.245Z,29.87
